Time;durP1;ratioP1;P1;durP2;ratioP2;P2;SDS_P1;SDS_P2;PMS_P1;PMS_P2;Temp;Humidity;BMP_temperature;BMP_pressure;BME280_temperature;BME280_humidity;BME280_pressure;Samples;Min_cycle;Max_cycle;Signal;HPM_P1;HPM_P2
2023/07/20 00:01:30;;;;;;;5.65;2.28;;;;;;;;;;6065590;23;20432;-85
2023/07/20 00:03:55;;;;;;;4.22;1.75;;;;;;;;;;6065373;23;20399;-85
2023/07/20 00:06:25;;;;;;;4.13;2.10;;;;;;;;;;6065373;23;20007;-85
2023/07/20 00:08:54;;;;;;;5.35;2.25;;;;;;;;;;6067110;23;19999;-85
2023/07/20 00:11:19;;;;;;;4.47;1.95;;;;;;;;;;6064996;23;20007;-85
2023/07/20 00:13:44;;;;;;;5.05;1.90;;;;;;;;;;6067212;23;19995;-85
2023/07/20 00:16:10;;;;;;;4.20;1.67;;;;;;;;;;6065634;23;20427;-84
2023/07/20 00:18:35;;;;;;;5.47;2.13;;;;;;;;;;6065296;23;20013;-85
2023/07/20 00:21:01;;;;;;;5.32;1.83;;;;;;;;;;6066903;23;19998;-85
2023/07/20 00:23:26;;;;;;;8.10;2.10;;;;;;;;;;6067088;23;20003;-84
2023/07/20 00:25:52;;;;;;;3.83;1.83;;;;;;;;;;6067362;23;20014;-85
2023/07/20 00:28:17;;;;;;;10.40;2.13;;;;;;;;;;6069955;23;20018;-85
2023/07/20 00:30:43;;;;;;;3.88;1.88;;;;;;;;;;6068066;23;19995;-85
2023/07/20 00:33:12;;;;;;;18.20;2.05;;;;;;;;;;6071235;23;20062;-85
2023/07/20 00:35:37;;;;;;;3.20;1.60;;;;;;;;;;6092677;23;20431;-85
2023/07/20 00:38:03;;;;;;;5.85;2.03;;;;;;;;;;6070245;23;19998;-85
2023/07/20 00:40:28;;;;;;;5.25;1.75;;;;;;;;;;6069762;23;20066;-85
2023/07/20 00:42:54;;;;;;;10.32;2.13;;;;;;;;;;6071475;23;20399;-85
2023/07/20 00:45:29;;;;;;;7.45;2.05;;;;;;;;;;6047040;23;20009;-85
2023/07/20 00:47:57;;;;;;;5.93;2.65;;;;;;;;;;6070875;23;20006;-85
2023/07/20 00:50:24;;;;;;;9.43;1.88;;;;;;;;;;6047582;23;20006;-84
2023/07/20 00:52:49;;;;;;;5.53;1.88;;;;;;;;;;6046589;23;20371;-85
2023/07/20 00:55:14;;;;;;;13.05;2.28;;;;;;;;;;6043995;23;20031;-85
2023/07/20 00:57:40;;;;;;;7.20;1.85;;;;;;;;;;6043625;23;20014;-84
2023/07/20 01:00:06;;;;;;;8.73;2.33;;;;;;;;;;6069335;23;20007;-85
2023/07/20 01:02:31;;;;;;;9.15;2.28;;;;;;;;;;6043084;23;19999;-85
2023/07/20 01:04:57;;;;;;;6.35;2.03;;;;;;;;;;6068343;23;20010;-85
2023/07/20 01:07:26;;;;;;;10.38;2.38;;;;;;;;;;6042988;23;20003;-84
2023/07/20 01:10:21;;;;;;;10.18;2.83;;;;;;;;;;6068672;23;19991;-84
2023/07/20 01:12:47;;;;;;;7.68;2.35;;;;;;;;;;5919668;23;20005;-85
2023/07/20 01:15:15;;;;;;;4.68;1.85;;;;;;;;;;6043052;23;19991;-84
2023/07/20 01:17:46;;;;;;;6.97;2.22;;;;;;;;;;6066364;23;20014;-84
2023/07/20 01:20:15;;;;;;;7.23;2.37;;;;;;;;;;6042487;23;20024;-84
2023/07/20 01:22:59;;;;;;;6.75;2.05;;;;;;;;;;6042717;23;20011;-85
2023/07/20 01:25:33;;;;;;;5.15;2.65;;;;;;;;;;6043194;23;20063;-85
2023/07/20 01:27:59;;;;;;;6.82;2.80;;;;;;;;;;6068508;23;20003;-85
2023/07/20 01:30:43;;;;;;;8.35;2.20;;;;;;;;;;6043131;23;19998;-85
2023/07/20 01:33:09;;;;;;;5.93;2.22;;;;;;;;;;6042880;23;20011;-84
2023/07/20 01:35:34;;;;;;;7.32;2.60;;;;;;;;;;6041845;23;20385;-84
2023/07/20 01:38:00;;;;;;;5.28;2.22;;;;;;;;;;6066782;23;20058;-85
2023/07/20 01:40:26;;;;;;;6.13;2.85;;;;;;;;;;6042832;23;20045;-85
2023/07/20 01:43:11;;;;;;;7.70;2.65;;;;;;;;;;6042794;23;20010;-85
2023/07/20 01:45:41;;;;;;;6.78;2.55;;;;;;;;;;6041813;23;20013;-85
2023/07/20 01:48:07;;;;;;;9.05;2.40;;;;;;;;;;6066364;23;20007;-85
2023/07/20 01:50:34;;;;;;;5.03;2.53;;;;;;;;;;6042156;23;20007;-84
2023/07/20 01:52:59;;;;;;;8.50;2.90;;;;;;;;;;6042856;23;20026;-85
2023/07/20 01:55:24;;;;;;;4.80;2.10;;;;;;;;;;6068899;23;20002;-83
2023/07/20 01:57:50;;;;;;;7.82;2.65;;;;;;;;;;6068660;23;20456;-85
2023/07/20 02:00:15;;;;;;;7.70;3.10;;;;;;;;;;6042153;23;20018;-84
2023/07/20 02:02:41;;;;;;;8.35;2.72;;;;;;;;;;6068509;23;20411;-84
2023/07/20 02:05:06;;;;;;;6.35;2.50;;;;;;;;;;6067467;23;20037;-84
2023/07/20 02:07:31;;;;;;;10.05;2.95;;;;;;;;;;6043428;23;20010;-85
2023/07/20 02:09:57;;;;;;;7.63;2.55;;;;;;;;;;6042848;23;19999;-84
2023/07/20 02:12:22;;;;;;;6.65;2.92;;;;;;;;;;6045965;23;20046;-85
2023/07/20 02:14:47;;;;;;;8.80;2.83;;;;;;;;;;6069122;23;19998;-84
2023/07/20 02:17:13;;;;;;;5.28;2.47;;;;;;;;;;6045532;23;20002;-84
2023/07/20 02:19:38;;;;;;;7.32;2.85;;;;;;;;;;6069950;23;19999;-84
2023/07/20 02:22:04;;;;;;;6.43;2.65;;;;;;;;;;6043300;23;20007;-84
2023/07/20 02:24:29;;;;;;;5.57;2.42;;;;;;;;;;6042641;23;20006;-85
2023/07/20 02:26:54;;;;;;;9.82;3.20;;;;;;;;;;6068256;23;20014;-84
2023/07/20 02:29:20;;;;;;;11.93;2.88;;;;;;;;;;6068262;23;20458;-85
2023/07/20 02:31:45;;;;;;;6.15;2.00;;;;;;;;;;6042771;23;20003;-84
2023/07/20 02:34:10;;;;;;;8.25;3.10;;;;;;;;;;6067592;23;20002;-85
2023/07/20 02:36:36;;;;;;;6.95;2.60;;;;;;;;;;6042637;23;20011;-85
2023/07/20 02:39:04;;;;;;;8.15;2.40;;;;;;;;;;6067762;23;20003;-85
2023/07/20 02:41:33;;;;;;;13.63;2.92;;;;;;;;;;6042558;23;20010;-85
2023/07/20 02:43:58;;;;;;;4.93;2.40;;;;;;;;;;6054146;23;20066;-84
2023/07/20 02:46:23;;;;;;;7.53;3.00;;;;;;;;;;6067518;23;20015;-84
2023/07/20 02:48:51;;;;;;;6.13;2.33;;;;;;;;;;6067366;23;20078;-84
2023/07/20 02:51:16;;;;;;;6.38;2.60;;;;;;;;;;6066529;23;20295;-85
2023/07/20 02:53:42;;;;;;;7.20;2.83;;;;;;;;;;6068350;23;20026;-85
2023/07/20 02:56:07;;;;;;;6.07;2.72;;;;;;;;;;6067785;23;20023;-84
2023/07/20 02:58:36;;;;;;;9.18;3.65;;;;;;;;;;6089898;23;20083;-85
2023/07/20 03:01:04;;;;;;;7.72;2.85;;;;;;;;;;6066377;23;20365;-84
2023/07/20 03:03:29;;;;;;;6.40;2.72;;;;;;;;;;6065700;23;19999;-85
2023/07/20 03:05:55;;;;;;;8.38;2.70;;;;;;;;;;6065922;23;20056;-85
2023/07/20 03:08:21;;;;;;;8.80;2.78;;;;;;;;;;6065765;23;20078;-85
2023/07/20 03:10:46;;;;;;;9.80;2.70;;;;;;;;;;6066161;23;20022;-85
2023/07/20 03:13:14;;;;;;;6.22;2.63;;;;;;;;;;6065798;23;20385;-85
2023/07/20 03:15:39;;;;;;;4.85;2.45;;;;;;;;;;6066952;23;20325;-85
2023/07/20 03:18:04;;;;;;;6.10;2.60;;;;;;;;;;6089333;23;19995;-84
2023/07/20 03:20:30;;;;;;;8.75;2.72;;;;;;;;;;6065299;23;20329;-84
2023/07/20 03:22:56;;;;;;;7.40;2.85;;;;;;;;;;6066131;23;20301;-83
2023/07/20 03:25:24;;;;;;;5.47;2.65;;;;;;;;;;6066289;23;20050;-84
2023/07/20 03:27:49;;;;;;;8.93;3.25;;;;;;;;;;6065741;23;20372;-84
2023/07/20 03:30:15;;;;;;;10.27;3.50;;;;;;;;;;6067397;23;20025;-84
2023/07/20 03:32:40;;;;;;;7.68;2.72;;;;;;;;;;6066412;23;20003;-84
2023/07/20 03:35:06;;;;;;;10.02;2.97;;;;;;;;;;6067327;23;20003;-84
2023/07/20 03:37:31;;;;;;;6.65;3.22;;;;;;;;;;6066331;23;20096;-85
2023/07/20 03:39:56;;;;;;;5.07;2.80;;;;;;;;;;6067671;23;20029;-85
2023/07/20 03:42:22;;;;;;;11.27;2.58;;;;;;;;;;6065966;23;20446;-85
2023/07/20 03:44:47;;;;;;;5.65;2.60;;;;;;;;;;6089260;23;20014;-84
2023/07/20 03:47:13;;;;;;;10.05;2.70;;;;;;;;;;6068592;23;20010;-85
2023/07/20 03:49:38;;;;;;;9.10;3.63;;;;;;;;;;6066479;23;20840;-85
2023/07/20 03:52:06;;;;;;;9.93;2.47;;;;;;;;;;6066036;23;20003;-85
2023/07/20 03:54:32;;;;;;;8.55;2.97;;;;;;;;;;6089824;23;20003;-84
2023/07/20 03:56:58;;;;;;;7.55;3.03;;;;;;;;;;6065596;23;20125;-85
2023/07/20 03:59:23;;;;;;;10.10;3.15;;;;;;;;;;6071421;23;20009;-84
2023/07/20 04:01:48;;;;;;;4.75;2.58;;;;;;;;;;6067960;23;20022;-84
2023/07/20 04:04:16;;;;;;;6.53;3.10;;;;;;;;;;6065228;23;20437;-84
2023/07/20 04:06:44;;;;;;;6.22;2.90;;;;;;;;;;6065626;23;20003;-84
2023/07/20 04:09:10;;;;;;;8.45;3.45;;;;;;;;;;6065280;23;20411;-84
2023/07/20 04:11:35;;;;;;;9.65;3.40;;;;;;;;;;6065106;23;20002;-84
2023/07/20 04:14:00;;;;;;;9.48;3.80;;;;;;;;;;6065160;23;20007;-84
2023/07/20 04:16:28;;;;;;;5.63;2.83;;;;;;;;;;6067342;23;20399;-83
2023/07/20 04:18:59;;;;;;;6.22;3.13;;;;;;;;;;6063733;23;20341;-84
2023/07/20 04:21:26;;;;;;;9.02;3.20;;;;;;;;;;6063985;23;20331;-84
2023/07/20 04:23:51;;;;;;;5.90;2.92;;;;;;;;;;6064550;23;20007;-84
2023/07/20 04:26:17;;;;;;;7.22;3.15;;;;;;;;;;6065998;23;20014;-84
2023/07/20 04:28:44;;;;;;;9.05;3.13;;;;;;;;;;6065178;23;20003;-84
2023/07/20 04:31:11;;;;;;;10.63;3.38;;;;;;;;;;6088720;23;19995;-84
2023/07/20 04:33:36;;;;;;;9.25;3.85;;;;;;;;;;6064539;23;20269;-84
2023/07/20 04:36:02;;;;;;;9.05;3.35;;;;;;;;;;6065607;23;20054;-84
2023/07/20 04:38:28;;;;;;;7.00;3.47;;;;;;;;;;6066096;23;20057;-83
2023/07/20 04:40:53;;;;;;;11.50;4.28;;;;;;;;;;6065120;23;20032;-83
2023/07/20 04:43:18;;;;;;;7.20;3.08;;;;;;;;;;6064889;23;20015;-84
2023/07/20 04:45:43;;;;;;;9.40;3.88;;;;;;;;;;6066658;23;20011;-83
2023/07/20 04:48:12;;;;;;;9.15;4.30;;;;;;;;;;6064554;23;20041;-84
2023/07/20 04:50:38;;;;;;;7.97;4.05;;;;;;;;;;6066793;23;20006;-84
2023/07/20 04:53:06;;;;;;;9.00;4.20;;;;;;;;;;6067203;23;20094;-83
2023/07/20 04:55:33;;;;;;;12.68;4.47;;;;;;;;;;6066100;23;20272;-83
2023/07/20 04:57:59;;;;;;;8.30;4.20;;;;;;;;;;6065332;23;20006;-84
2023/07/20 05:00:24;;;;;;;9.00;4.53;;;;;;;;;;6065191;23;20579;-84
2023/07/20 05:02:50;;;;;;;12.93;5.00;;;;;;;;;;6065818;23;20003;-84
2023/07/20 05:05:15;;;;;;;10.32;4.72;;;;;;;;;;6089116;23;20011;-84
2023/07/20 05:07:40;;;;;;;8.98;4.75;;;;;;;;;;6066815;23;19999;-84
2023/07/20 05:10:06;;;;;;;14.50;5.63;;;;;;;;;;6068244;23;19998;-84
2023/07/20 05:12:31;;;;;;;11.48;5.50;;;;;;;;;;6091805;23;20010;-84
2023/07/20 05:14:57;;;;;;;11.50;5.07;;;;;;;;;;6066395;23;20055;-84
2023/07/20 05:17:25;;;;;;;11.23;6.07;;;;;;;;;;6067397;23;19998;-84
2023/07/20 05:19:50;;;;;;;12.15;5.93;;;;;;;;;;6068023;23;20010;-84
2023/07/20 05:22:16;;;;;;;9.55;5.47;;;;;;;;;;6068981;23;20481;-83
2023/07/20 05:24:41;;;;;;;14.20;6.53;;;;;;;;;;6067962;23;20386;-84
2023/07/20 05:27:10;;;;;;;14.73;7.25;;;;;;;;;;6066519;23;19999;-84
2023/07/20 05:29:35;;;;;;;16.05;7.18;;;;;;;;;;6069585;23;20078;-84
2023/07/20 05:32:00;;;;;;;17.02;7.78;;;;;;;;;;6066507;23;20024;-84
2023/07/20 05:34:28;;;;;;;12.93;7.20;;;;;;;;;;6090250;23;20090;-84
2023/07/20 05:36:53;;;;;;;14.13;6.80;;;;;;;;;;6090723;23;20316;-84
2023/07/20 05:39:19;;;;;;;14.93;7.68;;;;;;;;;;6066821;23;20006;-83
2023/07/20 05:41:44;;;;;;;16.65;7.78;;;;;;;;;;6090272;23;20387;-84
2023/07/20 05:44:15;;;;;;;14.48;7.15;;;;;;;;;;6065661;23;20061;-83
2023/07/20 05:46:40;;;;;;;13.70;7.22;;;;;;;;;;6089043;23;20406;-83
2023/07/20 05:49:05;;;;;;;16.33;7.25;;;;;;;;;;6066127;23;20359;-84
2023/07/20 05:51:31;;;;;;;16.95;8.10;;;;;;;;;;6089514;23;20086;-83
2023/07/20 05:53:56;;;;;;;14.77;6.63;;;;;;;;;;6066080;23;20692;-84
2023/07/20 05:56:21;;;;;;;15.65;7.30;;;;;;;;;;6067689;23;20009;-84
2023/07/20 05:58:46;;;;;;;13.38;6.78;;;;;;;;;;6066239;23;20090;-84
2023/07/20 06:01:12;;;;;;;18.13;7.35;;;;;;;;;;6089417;23;20032;-84
2023/07/20 06:03:37;;;;;;;14.00;7.18;;;;;;;;;;6067683;23;20003;-84
2023/07/20 06:06:04;;;;;;;14.52;8.05;;;;;;;;;;6067744;23;20026;-84
2023/07/20 06:08:29;;;;;;;18.83;7.70;;;;;;;;;;6065492;23;20352;-84
2023/07/20 06:10:55;;;;;;;13.80;7.60;;;;;;;;;;6066217;23;20460;-84
2023/07/20 06:13:20;;;;;;;11.68;6.78;;;;;;;;;;6064771;23;20007;-84
2023/07/20 06:15:45;;;;;;;14.63;7.55;;;;;;;;;;6065366;23;20451;-84
2023/07/20 06:18:10;;;;;;;15.23;7.57;;;;;;;;;;6067099;23;20507;-84
2023/07/20 06:20:36;;;;;;;16.20;7.55;;;;;;;;;;6067508;23;20010;-84
2023/07/20 06:23:01;;;;;;;17.20;7.57;;;;;;;;;;6068000;23;20009;-84
2023/07/20 06:25:26;;;;;;;18.17;7.93;;;;;;;;;;6068035;23;20419;-84
2023/07/20 06:27:52;;;;;;;17.88;8.20;;;;;;;;;;6065952;23;20014;-84
2023/07/20 06:30:20;;;;;;;14.60;7.50;;;;;;;;;;6067081;23;20102;-85
2023/07/20 06:32:46;;;;;;;20.98;9.00;;;;;;;;;;6089785;23;20047;-84
2023/07/20 06:35:11;;;;;;;19.38;8.65;;;;;;;;;;6066636;23;20055;-84
2023/07/20 06:37:36;;;;;;;17.38;8.45;;;;;;;;;;6068023;23;20458;-83
2023/07/20 06:40:03;;;;;;;19.08;8.40;;;;;;;;;;6067727;23;20006;-83
2023/07/20 06:42:29;;;;;;;15.63;8.18;;;;;;;;;;6068193;23;20006;-83
2023/07/20 06:44:54;;;;;;;12.65;6.47;;;;;;;;;;6069996;23;20388;-83
2023/07/20 06:47:20;;;;;;;19.13;8.52;;;;;;;;;;6042730;23;19999;-82
2023/07/20 06:49:45;;;;;;;10.60;6.20;;;;;;;;;;6044069;23;20006;-83
2023/07/20 06:52:10;;;;;;;13.10;6.35;;;;;;;;;;6069361;23;19999;-85
2023/07/20 06:54:35;;;;;;;11.95;5.55;;;;;;;;;;6043537;23;20380;-85
2023/07/20 06:57:01;;;;;;;14.25;7.15;;;;;;;;;;6042139;23;20062;-85
2023/07/20 06:59:26;;;;;;;11.45;5.55;;;;;;;;;;6043964;23;20027;-85
2023/07/20 07:01:51;;;;;;;8.18;4.60;;;;;;;;;;6067060;23;20010;-85
2023/07/20 07:04:17;;;;;;;7.50;4.05;;;;;;;;;;6066207;23;20025;-85
2023/07/20 07:06:43;;;;;;;7.55;3.65;;;;;;;;;;6065211;23;20026;-85
2023/07/20 07:09:08;;;;;;;9.70;4.95;;;;;;;;;;6041421;23;20041;-85
2023/07/20 07:11:34;;;;;;;9.43;4.85;;;;;;;;;;6042026;23;20007;-84
2023/07/20 07:13:59;;;;;;;7.75;4.38;;;;;;;;;;6041978;23;20017;-85
2023/07/20 07:16:24;;;;;;;8.80;4.95;;;;;;;;;;6042153;23;20001;-84
2023/07/20 07:18:50;;;;;;;7.65;4.55;;;;;;;;;;6041428;23;20014;-84
2023/07/20 07:21:15;;;;;;;6.47;3.75;;;;;;;;;;6041605;23;20295;-84
2023/07/20 07:23:41;;;;;;;6.28;4.20;;;;;;;;;;6066981;23;20014;-84
2023/07/20 07:26:06;;;;;;;9.73;3.70;;;;;;;;;;6066915;23;20002;-85
2023/07/20 07:28:34;;;;;;;10.73;5.93;;;;;;;;;;6041715;23;20085;-84
2023/07/20 07:30:59;;;;;;;7.15;4.20;;;;;;;;;;6066102;23;19999;-85
2023/07/20 07:33:25;;;;;;;9.30;5.53;;;;;;;;;;6062285;23;20370;-85
2023/07/20 07:35:53;;;;;;;9.38;5.65;;;;;;;;;;6065472;23;20006;-84
2023/07/20 07:38:19;;;;;;;9.60;6.22;;;;;;;;;;6040188;23;20004;-84
2023/07/20 07:40:44;;;;;;;10.35;5.88;;;;;;;;;;6067057;23;20066;-86
2023/07/20 07:43:10;;;;;;;9.40;5.18;;;;;;;;;;6044485;23;20011;-87
2023/07/20 07:45:36;;;;;;;11.25;6.30;;;;;;;;;;6066588;23;20003;-87
2023/07/20 07:48:02;;;;;;;8.82;5.18;;;;;;;;;;6066305;23;20090;-87
2023/07/20 07:50:27;;;;;;;7.72;5.25;;;;;;;;;;6067542;23;20050;-86
2023/07/20 07:52:52;;;;;;;8.07;4.70;;;;;;;;;;6065723;23;20002;-87
2023/07/20 07:55:18;;;;;;;9.52;4.85;;;;;;;;;;6067879;23;19999;-86
2023/07/20 07:57:43;;;;;;;12.43;6.95;;;;;;;;;;6066197;23;20002;-86
2023/07/20 08:00:14;;;;;;;9.27;5.15;;;;;;;;;;6067483;23;20373;-86
2023/07/20 08:02:39;;;;;;;12.40;5.75;;;;;;;;;;6064744;23;19999;-86
2023/07/20 08:05:05;;;;;;;4.85;3.47;;;;;;;;;;6065947;23;20011;-86
2023/07/20 08:07:30;;;;;;;6.00;3.95;;;;;;;;;;6068087;23;20003;-86
2023/07/20 08:09:55;;;;;;;6.30;3.28;;;;;;;;;;6067085;23;19999;-87
2023/07/20 08:12:21;;;;;;;5.60;2.58;;;;;;;;;;6068840;23;19995;-86
2023/07/20 08:14:46;;;;;;;5.00;3.30;;;;;;;;;;6068927;23;20074;-93
2023/07/20 08:17:11;;;;;;;6.28;3.00;;;;;;;;;;6065781;23;20003;-86
2023/07/20 08:19:37;;;;;;;4.22;3.08;;;;;;;;;;6065961;23;20006;-85
2023/07/20 08:22:02;;;;;;;5.95;2.85;;;;;;;;;;6065895;23;20327;-85
2023/07/20 08:24:31;;;;;;;6.65;3.83;;;;;;;;;;6066198;23;19999;-86
2023/07/20 08:26:56;;;;;;;4.60;2.63;;;;;;;;;;6090248;23;20002;-86
2023/07/20 08:29:21;;;;;;;5.68;4.03;;;;;;;;;;6066537;23;19999;-86
2023/07/20 08:31:48;;;;;;;5.03;3.50;;;;;;;;;;6066380;23;20058;-85
2023/07/20 08:34:16;;;;;;;7.45;3.47;;;;;;;;;;6065645;23;20014;-88
2023/07/20 08:36:42;;;;;;;4.40;2.60;;;;;;;;;;6065644;23;20320;-85
2023/07/20 08:39:07;;;;;;;5.97;3.13;;;;;;;;;;6064482;23;20002;-85
2023/07/20 08:41:34;;;;;;;4.45;2.63;;;;;;;;;;6088357;23;20006;-86
2023/07/20 08:43:59;;;;;;;3.83;3.05;;;;;;;;;;6089721;23;20010;-86
2023/07/20 08:46:26;;;;;;;4.30;2.60;;;;;;;;;;6067349;23;20109;-87
2023/07/20 08:48:52;;;;;;;4.35;2.70;;;;;;;;;;6067512;23;20035;-87
2023/07/20 08:51:19;;;;;;;3.63;2.67;;;;;;;;;;6068469;23;20029;-87
2023/07/20 08:53:45;;;;;;;4.45;2.45;;;;;;;;;;6066727;23;19998;-87
2023/07/20 08:56:11;;;;;;;2.85;2.22;;;;;;;;;;6066861;23;20003;-86
2023/07/20 08:58:37;;;;;;;4.60;3.35;;;;;;;;;;6090212;23;20022;-85
2023/07/20 09:01:03;;;;;;;3.95;2.50;;;;;;;;;;6066631;23;20323;-83
2023/07/20 09:03:28;;;;;;;3.88;2.65;;;;;;;;;;6089521;23;20126;-84
2023/07/20 09:05:53;;;;;;;4.18;2.50;;;;;;;;;;6065255;23;20018;-83
2023/07/20 09:08:19;;;;;;;4.25;2.80;;;;;;;;;;6067294;23;19995;-82
2023/07/20 09:10:46;;;;;;;3.10;1.98;;;;;;;;;;6067961;23;20026;-81
2023/07/20 09:13:15;;;;;;;4.25;3.10;;;;;;;;;;6066133;23;19995;-82
2023/07/20 09:15:45;;;;;;;5.28;3.28;;;;;;;;;;6066513;23;20328;-82
2023/07/20 09:18:11;;;;;;;4.07;2.80;;;;;;;;;;6065187;23;20077;-83
2023/07/20 09:20:36;;;;;;;6.07;3.30;;;;;;;;;;6067642;23;19999;-83
2023/07/20 09:23:04;;;;;;;4.53;3.38;;;;;;;;;;6065530;23;20013;-82
2023/07/20 09:25:30;;;;;;;4.47;2.92;;;;;;;;;;6067429;23;20002;-83
2023/07/20 09:27:55;;;;;;;3.85;2.03;;;;;;;;;;6068350;23;20026;-83
2023/07/20 09:30:24;;;;;;;3.70;1.90;;;;;;;;;;6066703;23;20367;-82
2023/07/20 09:32:53;;;;;;;3.92;2.35;;;;;;;;;;6065975;23;19991;-83
2023/07/20 09:35:19;;;;;;;2.85;1.90;;;;;;;;;;6067624;23;19999;-83
2023/07/20 09:38:03;;;;;;;3.60;1.67;;;;;;;;;;6067077;23;20022;-85
2023/07/20 09:40:29;;;;;;;3.30;2.20;;;;;;;;;;6066455;23;20336;-83
2023/07/20 09:43:00;;;;;;;2.30;1.80;;;;;;;;;;6089400;23;20014;-83
2023/07/20 09:45:29;;;;;;;9.07;2.40;;;;;;;;;;6044533;23;20007;-83
2023/07/20 09:48:03;;;;;;;4.47;1.95;;;;;;;;;;6043583;23;20069;-83
2023/07/20 09:50:28;;;;;;;6.57;2.50;;;;;;;;;;6041720;23;20011;-85
2023/07/20 09:52:56;;;;;;;3.28;2.25;;;;;;;;;;6068199;23;20085;-84
2023/07/20 09:55:24;;;;;;;4.00;2.30;;;;;;;;;;6067682;23;20006;-87
2023/07/20 09:57:49;;;;;;;2.35;1.80;;;;;;;;;;6043480;23;20022;-83
2023/07/20 10:00:16;;;;;;;2.80;1.85;;;;;;;;;;6042293;23;20006;-82
2023/07/20 10:02:44;;;;;;;2.47;1.80;;;;;;;;;;6042163;23;20057;-83
2023/07/20 10:05:11;;;;;;;3.70;1.70;;;;;;;;;;6062932;23;20015;-82
2023/07/20 10:07:40;;;;;;;2.88;1.80;;;;;;;;;;6041278;23;20396;-82
2023/07/20 10:10:07;;;;;;;3.20;2.33;;;;;;;;;;6041334;23;20062;-82
2023/07/20 10:12:33;;;;;;;4.93;2.00;;;;;;;;;;6067731;23;20006;-82
2023/07/20 10:15:13;;;;;;;2.47;1.73;;;;;;;;;;6067808;23;20415;-83
2023/07/20 10:17:41;;;;;;;3.90;2.15;;;;;;;;;;6042081;23;20380;-82
2023/07/20 10:20:12;;;;;;;2.63;1.83;;;;;;;;;;6041993;23;19999;-83
2023/07/20 10:22:38;;;;;;;4.18;1.88;;;;;;;;;;6064643;23;20418;-83
2023/07/20 10:25:05;;;;;;;3.88;2.63;;;;;;;;;;6065401;23;20257;-83
2023/07/20 10:27:30;;;;;;;3.30;1.98;;;;;;;;;;6067379;23;19999;-82
2023/07/20 10:29:57;;;;;;;3.28;1.98;;;;;;;;;;6041970;23;20474;-82
2023/07/20 10:32:22;;;;;;;3.88;1.75;;;;;;;;;;6041177;23;20014;-83
2023/07/20 10:34:52;;;;;;;3.45;1.90;;;;;;;;;;6040969;23;20003;-82
2023/07/20 10:37:36;;;;;;;3.83;1.73;;;;;;;;;;6041482;23;20058;-82
2023/07/20 10:40:21;;;;;;;2.90;1.80;;;;;;;;;;6040996;23;20034;-83
2023/07/20 10:42:47;;;;;;;4.68;1.80;;;;;;;;;;6065598;23;20066;-82
2023/07/20 10:45:13;;;;;;;1.85;1.52;;;;;;;;;;6041816;23;20360;-82
2023/07/20 10:47:45;;;;;;;5.43;1.60;;;;;;;;;;6065300;23;20030;-82
2023/07/20 10:50:12;;;;;;;3.75;1.60;;;;;;;;;;6066560;23;20010;-82
2023/07/20 10:52:37;;;;;;;4.10;1.70;;;;;;;;;;6067330;23;20431;-83
2023/07/20 10:55:16;;;;;;;3.08;1.40;;;;;;;;;;6041700;23;20006;-83
2023/07/20 10:58:06;;;;;;;1.73;1.35;;;;;;;;;;6067655;23;20078;-83
2023/07/20 11:00:31;;;;;;;3.08;1.65;;;;;;;;;;6067043;23;20006;-82
2023/07/20 11:03:02;;;;;;;2.50;1.30;;;;;;;;;;6067357;23;20002;-82
2023/07/20 11:05:40;;;;;;;1.67;1.40;;;;;;;;;;6042416;23;20035;-82
2023/07/20 11:08:25;;;;;;;2.47;1.58;;;;;;;;;;6067293;23;20009;-82
2023/07/20 11:11:10;;;;;;;3.35;1.60;;;;;;;;;;6041944;23;20081;-82
2023/07/20 11:13:53;;;;;;;1.83;1.40;;;;;;;;;;6041851;23;20006;-83
2023/07/20 11:16:18;;;;;;;;;;;;;;;;;;6069012;23;20138;-82
2023/07/20 11:18:46;;;;;;;1.77;1.30;;;;;;;;;;6069741;23;19909;-82
2023/07/20 11:21:11;;;;;;;2.90;2.25;;;;;;;;;;6041369;23;20003;-82
2023/07/20 11:23:38;;;;;;;3.92;2.30;;;;;;;;;;6066534;23;20060;-82
2023/07/20 11:26:03;;;;;;;2.10;1.50;;;;;;;;;;6067591;23;19995;-83
2023/07/20 11:28:36;;;;;;;1.98;1.33;;;;;;;;;;6041791;23;20006;-82
2023/07/20 11:31:04;;;;;;;2.10;1.77;;;;;;;;;;6041161;23;20598;-82
2023/07/20 11:33:29;;;;;;;2.67;1.75;;;;;;;;;;6066498;23;20368;-82
2023/07/20 11:35:57;;;;;;;2.75;1.50;;;;;;;;;;6041526;23;19995;-83
2023/07/20 11:38:23;;;;;;;3.40;1.90;;;;;;;;;;6041368;23;20007;-82
2023/07/20 11:40:49;;;;;;;2.80;1.65;;;;;;;;;;6041900;23;20352;-83
2023/07/20 11:43:15;;;;;;;2.95;1.48;;;;;;;;;;6044263;23;20656;-82
2023/07/20 11:45:40;;;;;;;2.50;1.73;;;;;;;;;;6089379;23;20003;-82
2023/07/20 11:48:05;;;;;;;4.25;1.70;;;;;;;;;;6061636;23;20014;-83
2023/07/20 11:50:31;;;;;;;2.35;1.75;;;;;;;;;;6066561;23;20101;-84
2023/07/20 11:52:57;;;;;;;2.53;1.80;;;;;;;;;;6064678;23;20045;-84
2023/07/20 11:55:22;;;;;;;2.75;1.60;;;;;;;;;;6064548;23;20682;-84
2023/07/20 11:58:06;;;;;;;3.22;1.52;;;;;;;;;;6066296;23;20011;-84
2023/07/20 12:00:32;;;;;;;4.65;1.88;;;;;;;;;;6065096;23;20424;-83
2023/07/20 12:02:57;;;;;;;1.98;1.33;;;;;;;;;;6065262;23;20003;-83
2023/07/20 12:05:23;;;;;;;2.13;1.40;;;;;;;;;;6065027;23;20089;-83
2023/07/20 12:07:52;;;;;;;3.35;1.70;;;;;;;;;;6088321;23;20427;-84
2023/07/20 12:10:23;;;;;;;1.60;1.40;;;;;;;;;;6066016;23;20017;-84
2023/07/20 12:12:48;;;;;;;3.45;1.70;;;;;;;;;;6064397;23;20365;-83
2023/07/20 12:15:16;;;;;;;2.58;1.80;;;;;;;;;;6065413;23;20013;-84
2023/07/20 12:17:45;;;;;;;4.45;1.67;;;;;;;;;;6064502;23;20416;-84
2023/07/20 12:20:11;;;;;;;1.33;1.05;;;;;;;;;;6091962;23;20045;-83
2023/07/20 12:22:41;;;;;;;2.40;1.48;;;;;;;;;;6068570;23;19998;-83
2023/07/20 12:25:07;;;;;;;2.83;1.55;;;;;;;;;;6068455;23;20532;-83
2023/07/20 12:27:32;;;;;;;1.88;1.20;;;;;;;;;;6091873;23;20013;-83
2023/07/20 12:30:04;;;;;;;2.58;1.48;;;;;;;;;;6069135;23;20022;-83
2023/07/20 12:32:29;;;;;;;1.60;1.20;;;;;;;;;;6068669;23;20081;-82
2023/07/20 12:34:54;;;;;;;1.95;1.30;;;;;;;;;;6069048;23;20026;-83
2023/07/20 12:37:20;;;;;;;2.67;1.10;;;;;;;;;;6068839;23;19999;-83
2023/07/20 12:39:46;;;;;;;2.22;1.42;;;;;;;;;;6067199;23;20006;-83
2023/07/20 12:42:12;;;;;;;4.25;1.85;;;;;;;;;;6069884;23;20006;-84
2023/07/20 12:44:37;;;;;;;1.90;1.40;;;;;;;;;;6070182;23;20017;-83
2023/07/20 12:47:03;;;;;;;4.00;1.58;;;;;;;;;;6067901;23;20030;-83
2023/07/20 12:49:28;;;;;;;2.65;1.50;;;;;;;;;;6067572;23;20009;-84
2023/07/20 12:51:53;;;;;;;4.15;1.70;;;;;;;;;;6044084;23;20239;-82
2023/07/20 12:54:19;;;;;;;2.33;1.45;;;;;;;;;;6043464;23;20446;-83
2023/07/20 12:56:44;;;;;;;2.47;1.40;;;;;;;;;;6069881;23;20420;-84
2023/07/20 12:59:09;;;;;;;1.63;1.27;;;;;;;;;;6069828;23;20057;-84
2023/07/20 13:01:34;;;;;;;2.05;1.40;;;;;;;;;;6043370;23;20062;-81
2023/07/20 13:04:00;;;;;;;2.63;1.33;;;;;;;;;;6043492;23;20491;-81
2023/07/20 13:06:25;;;;;;;1.80;1.30;;;;;;;;;;6044437;23;20007;-81
2023/07/20 13:08:55;;;;;;;2.10;1.40;;;;;;;;;;6070311;23;20360;-80
2023/07/20 13:11:20;;;;;;;1.75;1.40;;;;;;;;;;6044199;23;20336;-80
2023/07/20 13:13:49;;;;;;;2.38;1.25;;;;;;;;;;6069932;23;20112;-80
2023/07/20 13:16:14;;;;;;;1.60;1.20;;;;;;;;;;6070578;23;20089;-80
2023/07/20 13:18:40;;;;;;;2.17;0.98;;;;;;;;;;6070464;23;20319;-79
2023/07/20 13:21:10;;;;;;;1.98;1.13;;;;;;;;;;6043381;23;19998;-80
2023/07/20 13:23:39;;;;;;;2.53;1.00;;;;;;;;;;6070157;23;20332;-81
2023/07/20 13:26:05;;;;;;;2.30;1.30;;;;;;;;;;6042181;23;20015;-81
2023/07/20 13:28:30;;;;;;;2.05;1.48;;;;;;;;;;6043099;23;20112;-81
2023/07/20 13:30:55;;;;;;;2.13;1.20;;;;;;;;;;6043208;23;19999;-81
2023/07/20 13:33:21;;;;;;;2.90;1.40;;;;;;;;;;6042335;23;20121;-82
2023/07/20 13:35:46;;;;;;;3.05;1.25;;;;;;;;;;6041981;23;19998;-81
2023/07/20 13:38:12;;;;;;;2.33;1.00;;;;;;;;;;6042523;23;20094;-82
2023/07/20 13:40:37;;;;;;;5.03;1.10;;;;;;;;;;6042362;23;20398;-82
2023/07/20 13:43:02;;;;;;;1.92;0.90;;;;;;;;;;6067867;23;20006;-82
2023/07/20 13:45:27;;;;;;;1.50;1.00;;;;;;;;;;6042290;23;20003;-82
2023/07/20 13:47:52;;;;;;;2.03;1.00;;;;;;;;;;6067951;23;20006;-82
2023/07/20 13:50:18;;;;;;;3.95;1.27;;;;;;;;;;6042514;23;20003;-81
2023/07/20 13:52:46;;;;;;;1.40;1.10;;;;;;;;;;6066529;23;19999;-81
2023/07/20 13:55:11;;;;;;;1.77;0.93;;;;;;;;;;6068300;23;19995;-82
2023/07/20 13:57:37;;;;;;;1.42;1.05;;;;;;;;;;6066290;23;20009;-81
2023/07/20 14:00:03;;;;;;;2.13;1.10;;;;;;;;;;6066019;23;20039;-82
2023/07/20 14:02:29;;;;;;;0.95;0.80;;;;;;;;;;6043611;23;20005;-82
2023/07/20 14:04:55;;;;;;;1.17;0.70;;;;;;;;;;6068130;23;20413;-82
2023/07/20 14:07:23;;;;;;;3.35;0.90;;;;;;;;;;6067952;23;20419;-82
2023/07/20 14:09:48;;;;;;;5.00;1.27;;;;;;;;;;6042104;23;20049;-81
2023/07/20 14:12:14;;;;;;;2.25;1.30;;;;;;;;;;6066995;23;20480;-82
2023/07/20 14:14:40;;;;;;;7.93;0.90;;;;;;;;;;6043187;23;20477;-82
2023/07/20 14:17:12;;;;;;;1.52;0.88;;;;;;;;;;6067209;23;20006;-82
2023/07/20 14:19:38;;;;;;;1.17;0.73;;;;;;;;;;6042827;23;20014;-81
2023/07/20 14:22:03;;;;;;;1.80;1.10;;;;;;;;;;6044422;23;20331;-82
2023/07/20 14:24:29;;;;;;;1.20;0.93;;;;;;;;;;6070557;23;19999;-82
2023/07/20 14:26:57;;;;;;;1.20;0.70;;;;;;;;;;6042436;23;20011;-82
2023/07/20 14:29:22;;;;;;;1.38;0.82;;;;;;;;;;6042582;23;19998;-82
2023/07/20 14:31:52;;;;;;;2.97;0.90;;;;;;;;;;6042251;23;20010;-81
2023/07/20 14:34:18;;;;;;;5.65;0.88;;;;;;;;;;6041937;23;20049;-81
2023/07/20 14:36:44;;;;;;;2.30;0.90;;;;;;;;;;6042328;23;20011;-82
2023/07/20 14:39:09;;;;;;;1.13;0.90;;;;;;;;;;6042427;23;20499;-82